SBCT/CWB METAR and TAF weather

Enter ICAO airport designator
Station Type Date Time Source
SBCT METAR 2020/07/14 22:00 UTC NOAA

SBCT 142200Z 08006KT 9999 OVC004 11/11 Q1023


Station Type Date Time Source
SBCT Decoded METAR 2020/07/14 22:00 UTC NOAA

Curitiba Aeroporto , Brazil (SBCT) 25-31S 049-10W 908M
Jul 14, 2020 - 06:00 PM EDT / 2020.07.14 2200 UTC
Wind: from the E (080 degrees) at 7 MPH (6 KT):0
Visibility: greater than 7 mile(s):0
Sky conditions: overcast
Temperature: 51 F (11 C)
Dew Point: 51 F (11 C)
Relative Humidity: 100%
Pressure (altimeter): 30.21 in. Hg (1023 hPa)
ob: SBCT 142200Z 08006KT 9999 OVC004 11/11 Q1023
cycle: 22

Station Type Date Time Source
SBCT TAF 2020/07/14 18:30 UTC NOAA

TAF SBCT 141500Z 1418/1518 08006KT 9999 FEW020 TN07/1508Z TX16/1517Z
BECMG 1421/1423 8000 BKN004
BECMG 1510/1512 9999 NSW BKN010
BECMG 1514/1516 BKN015
RMK PDW

Example: see airport list